Time;durP1;ratioP1;P1;durP2;ratioP2;P2;SDS_P1;SDS_P2;PMS_P1;PMS_P2;Temp;Humidity;BMP_temperature;BMP_pressure;BME280_temperature;BME280_humidity;BME280_pressure;Samples;Min_cycle;Max_cycle;Signal;HPM_P1;HPM_P2
2021/07/17 05:02:59;;;;;;;8.82;5.60;;;;;;;25.54;63.64;94184.81;5010907;23;20185;-73
2021/07/17 05:05:25;;;;;;;5.20;4.65;;;;;;;24.77;64.17;94186.56;4970968;28;20408;-73
2021/07/17 05:07:51;;;;;;;6.95;5.35;;;;;;;24.41;65.28;94188.66;4989217;28;20054;-73
2021/07/17 05:10:18;;;;;;;4.43;4.10;;;;;;;28.47;53.56;94188.78;4962478;28;20038;-73
2021/07/17 05:12:44;;;;;;;5.68;4.57;;;;;;;27.31;55.63;94191.06;4975523;28;20511;-73
2021/07/17 05:15:10;;;;;;;4.78;4.40;;;;;;;29.64;51.32;94192.84;4971234;28;20090;-73
2021/07/17 05:17:36;;;;;;;5.13;4.68;;;;;;;30.27;49.02;94187.09;4975355;28;20042;-74
2021/07/17 05:20:02;;;;;;;7.20;4.72;;;;;;;32.31;43.61;94196.13;4967869;28;20030;-74
2021/07/17 05:22:27;;;;;;;7.63;3.72;;;;;;;31.97;43.73;94194.44;4984301;28;20205;-74
2021/07/17 05:24:53;;;;;;;4.10;3.35;;;;;;;31.40;44.16;94177.94;4987198;28;20115;-72
2021/07/17 05:27:18;;;;;;;3.85;3.30;;;;;;;29.73;48.75;94180.31;4987539;28;20058;-74
2021/07/17 05:29:44;;;;;;;4.07;3.60;;;;;;;32.25;43.76;94178.66;4970395;28;20030;-74
2021/07/17 05:32:09;;;;;;;3.85;3.47;;;;;;;31.98;43.26;94187.94;4971206;28;20034;-73
2021/07/17 05:34:35;;;;;;;4.10;3.40;;;;;;;32.37;43.36;94176.84;4988313;28;20522;-73
2021/07/17 05:37:00;;;;;;;3.88;3.10;;;;;;;32.22;41.63;94180.13;4955107;28;20030;-74
2021/07/17 05:39:26;;;;;;;3.55;2.40;;;;;;;32.05;40.78;94179.41;4987083;28;20030;-74
2021/07/17 05:41:51;;;;;;;3.03;2.55;;;;;;;32.08;40.20;94179.56;4987729;28;20027;-73
2021/07/17 05:44:17;;;;;;;5.50;2.80;;;;;;;32.23;37.44;94178.22;4986733;28;20018;-72
2021/07/17 05:46:42;;;;;;;7.88;2.53;;;;;;;33.53;36.55;94171.41;4986792;28;20069;-71
2021/07/17 05:49:07;;;;;;;9.85;2.58;;;;;;;33.30;37.74;94179.09;4986672;28;20037;-71
2021/07/17 05:51:33;;;;;;;3.55;2.63;;;;;;;33.82;36.22;94173.94;4970771;28;20033;-74
2021/07/17 05:53:58;;;;;;;6.15;2.72;;;;;;;35.24;34.69;94173.56;4987923;28;20049;-74
2021/07/17 05:56:24;;;;;;;4.40;2.28;;;;;;;34.86;32.94;94170.56;4949850;28;20538;-75
2021/07/17 05:58:49;;;;;;;3.55;2.03;;;;;;;33.27;32.37;94166.31;4982195;28;20407;-75
2021/07/17 06:01:15;;;;;;;8.13;2.28;;;;;;;34.09;33.96;94167.09;4980614;28;20065;-72
2021/07/17 06:03:42;;;;;;;6.55;2.15;;;;;;;33.51;34.37;94162.13;4983470;28;20037;-72
2021/07/17 06:06:09;;;;;;;8.10;2.47;;;;;;;32.71;34.95;94162.44;4981698;28;20117;-72
2021/07/17 06:08:34;;;;;;;7.70;2.78;;;;;;;34.53;33.27;94154.59;4964376;28;20321;-72
2021/07/17 06:11:00;;;;;;;3.50;2.17;;;;;;;34.81;31.70;94155.44;4964707;28;20031;-74
2021/07/17 06:13:25;;;;;;;2.70;2.00;;;;;;;35.14;32.41;94162.50;4980599;28;20549;-72
2021/07/17 06:15:52;;;;;;;4.32;2.50;;;;;;;34.64;33.14;94161.13;4982893;28;20025;-75
2021/07/17 06:18:17;;;;;;;9.32;2.50;;;;;;;34.28;33.20;94161.16;4977971;28;20037;-74
2021/07/17 06:20:43;;;;;;;6.85;1.98;;;;;;;36.62;31.80;94160.72;4982210;28;20349;-75
2021/07/17 06:23:08;;;;;;;3.25;2.03;;;;;;;36.15;31.19;94158.16;4981125;28;20034;-74
2021/07/17 06:25:34;;;;;;;5.82;2.08;;;;;;;35.87;30.29;94146.66;4980546;28;20043;-75
2021/07/17 06:27:59;;;;;;;3.13;2.08;;;;;;;33.79;33.31;94146.94;4981030;28;20026;-72
2021/07/17 06:30:25;;;;;;;2.55;1.85;;;;;;;33.46;33.33;94143.53;4964936;28;20026;-72
2021/07/17 06:32:50;;;;;;;7.13;2.30;;;;;;;33.68;33.19;94141.22;4967021;28;20476;-75
2021/07/17 06:35:15;;;;;;;6.18;2.25;;;;;;;36.56;30.57;94143.25;4964321;28;20026;-74
2021/07/17 06:37:41;;;;;;;5.90;2.38;;;;;;;33.71;32.77;94140.56;4965781;28;20495;-74
2021/07/17 06:40:09;;;;;;;2.47;2.28;;;;;;;35.77;31.91;94128.31;4966313;28;20105;-75
2021/07/17 06:42:45;;;;;;;4.45;2.30;;;;;;;36.31;32.47;94140.00;4981765;28;20449;-75
2021/07/17 06:45:12;;;;;;;6.45;2.50;;;;;;;32.08;36.13;94138.56;4981785;28;20496;-74
2021/07/17 06:47:38;;;;;;;5.07;1.95;;;;;;;30.17;40.43;94139.28;4983437;28;20450;-74
2021/07/17 06:50:04;;;;;;;4.15;2.17;;;;;;;31.85;38.86;94130.78;4967380;28;20029;-72
2021/07/17 06:52:30;;;;;;;2.60;2.00;;;;;;;31.48;37.89;94133.47;4963608;28;20058;-74
2021/07/17 06:54:55;;;;;;;3.88;2.13;;;;;;;29.12;41.17;94126.97;5000253;28;20113;-72
2021/07/17 06:57:20;;;;;;;7.75;1.75;;;;;;;31.34;37.28;94126.41;4968082;28;20079;-71
2021/07/17 06:59:46;;;;;;;5.32;2.33;;;;;;;34.32;32.83;94119.00;4969449;28;20100;-72
2021/07/17 07:02:11;;;;;;;5.20;2.28;;;;;;;31.50;36.10;94115.97;4984667;28;20134;-71
2021/07/17 07:04:37;;;;;;;13.40;2.10;;;;;;;30.30;39.30;94110.81;4968634;28;20457;-73
2021/07/17 07:07:03;;;;;;;6.15;2.00;;;;;;;30.77;38.49;94107.19;4987459;28;20044;-75
2021/07/17 07:09:28;;;;;;;4.90;2.03;;;;;;;30.55;39.36;94112.72;4983447;28;20034;-76
2021/07/17 07:11:53;;;;;;;5.32;1.77;;;;;;;29.94;38.53;94113.78;4985557;28;20026;-72
2021/07/17 07:14:19;;;;;;;5.35;2.30;;;;;;;30.29;37.10;94112.72;4984698;28;20026;-73
2021/07/17 07:16:44;;;;;;;6.53;2.25;;;;;;;29.33;38.60;94105.88;4986872;28;20042;-72
2021/07/17 07:19:10;;;;;;;5.55;2.35;;;;;;;30.38;38.12;94117.25;4985823;28;20026;-73
2021/07/17 07:21:35;;;;;;;5.07;2.20;;;;;;;30.40;36.90;94104.41;4985093;28;20413;-73
2021/07/17 07:24:01;;;;;;;7.47;2.20;;;;;;;33.66;32.64;94100.47;4967417;28;20152;-72
2021/07/17 07:26:27;;;;;;;4.43;2.10;;;;;;;35.19;30.62;94108.38;4985017;28;20026;-73
2021/07/17 07:28:56;;;;;;;9.35;3.17;;;;;;;31.39;35.14;94106.72;4985723;28;20494;-74
2021/07/17 07:31:22;;;;;;;3.75;2.35;;;;;;;29.30;37.93;94112.63;4984495;28;20613;-73
2021/07/17 07:33:47;;;;;;;8.68;2.30;;;;;;;29.65;37.38;94108.19;4986340;28;20026;-73
2021/07/17 07:36:13;;;;;;;6.88;2.15;;;;;;;29.51;38.60;94105.63;4984230;28;20031;-73
2021/07/17 07:38:38;;;;;;;4.32;2.05;;;;;;;30.17;38.63;94106.41;4984417;28;20027;-72
2021/07/17 07:41:04;;;;;;;10.38;2.03;;;;;;;29.90;37.88;94112.03;4985262;28;20401;-73
2021/07/17 07:43:29;;;;;;;6.53;2.33;;;;;;;28.87;37.59;94107.03;4968262;28;20026;-70
2021/07/17 07:45:56;;;;;;;20.67;2.97;;;;;;;28.69;38.88;94098.16;4985219;28;20034;-73
2021/07/17 07:48:21;;;;;;;2.13;1.92;;;;;;;29.56;38.83;94108.16;4982988;28;20054;-71
2021/07/17 07:50:47;;;;;;;5.45;2.15;;;;;;;29.92;38.17;94112.53;4985669;28;20045;-71
2021/07/17 07:53:12;;;;;;;11.00;2.60;;;;;;;28.53;38.28;94099.59;4983955;28;20019;-73
2021/07/17 07:55:38;;;;;;;3.85;2.05;;;;;;;28.75;39.66;94101.50;4968736;28;20049;-73
2021/07/17 07:58:03;;;;;;;6.45;2.33;;;;;;;29.72;38.83;94105.84;4968329;28;20396;-71
2021/07/17 08:00:29;;;;;;;5.93;2.15;;;;;;;31.04;37.32;94114.09;4968448;28;20831;-72
2021/07/17 08:02:54;;;;;;;2.35;1.92;;;;;;;30.75;38.81;94114.75;4983765;28;20057;-73
2021/07/17 08:05:20;;;;;;;4.43;1.95;;;;;;;29.99;38.60;94115.53;4965442;28;20033;-70
2021/07/17 08:07:45;;;;;;;7.25;1.98;;;;;;;30.04;37.79;94118.03;4984069;28;20102;-72
2021/07/17 08:10:11;;;;;;;7.70;2.22;;;;;;;28.78;39.95;94107.00;4983685;28;20097;-71
2021/07/17 08:12:36;;;;;;;4.60;2.17;;;;;;;29.65;39.24;94108.19;4966167;28;20030;-73
2021/07/17 08:15:02;;;;;;;2.83;1.98;;;;;;;29.74;38.60;94107.09;4966019;28;20026;-71
2021/07/17 08:17:28;;;;;;;9.27;2.30;;;;;;;30.28;37.08;94107.66;4983201;28;20415;-71
2021/07/17 08:19:53;;;;;;;6.57;2.35;;;;;;;30.53;36.65;94109.59;4983758;28;20027;-73
2021/07/17 08:22:19;;;;;;;11.95;2.65;;;;;;;30.28;38.12;94097.75;4965733;28;20034;-76
2021/07/17 08:24:44;;;;;;;6.10;2.25;;;;;;;29.89;38.20;94097.13;4966428;28;20026;-73
2021/07/17 08:27:10;;;;;;;5.22;2.20;;;;;;;28.53;39.90;94099.59;4966218;28;20038;-79
2021/07/17 08:29:35;;;;;;;12.13;2.17;;;;;;;29.29;38.89;94100.38;4982594;28;20034;-72
2021/07/17 08:32:00;;;;;;;16.17;2.20;;;;;;;29.13;38.64;94088.50;4966026;28;20023;-77
2021/07/17 08:34:26;;;;;;;5.55;2.30;;;;;;;29.79;38.21;94098.19;4985403;28;20030;-73
2021/07/17 08:36:51;;;;;;;8.25;2.60;;;;;;;29.48;38.08;94092.09;4971681;28;20504;-72
2021/07/17 08:39:17;;;;;;;9.45;2.22;;;;;;;30.10;37.95;94077.50;4988772;28;20093;-73
2021/07/17 08:41:44;;;;;;;13.02;2.05;;;;;;;30.72;37.61;94094.00;4987888;28;20030;-72
2021/07/17 08:44:10;;;;;;;10.30;2.58;;;;;;;30.47;36.74;94092.13;4955300;28;20030;-73
2021/07/17 08:46:37;;;;;;;7.28;2.42;;;;;;;30.19;37.38;94080.94;4988483;28;20046;-74
2021/07/17 08:49:02;;;;;;;6.35;2.50;;;;;;;29.46;38.32;94078.28;4987661;28;20026;-74
2021/07/17 08:51:29;;;;;;;5.28;2.25;;;;;;;30.03;37.27;94074.50;4987404;28;20494;-73
2021/07/17 08:53:54;;;;;;;4.32;2.53;;;;;;;30.03;36.56;94071.03;4987230;28;20045;-70
2021/07/17 08:56:20;;;;;;;9.98;2.17;;;;;;;30.11;37.51;94070.25;4970683;28;20507;-73
2021/07/17 08:58:48;;;;;;;5.22;2.28;;;;;;;30.49;36.94;94073.88;4971320;28;20113;-74
2021/07/17 09:01:14;;;;;;;5.63;2.85;;;;;;;30.71;38.63;94072.91;4986703;28;20038;-74
2021/07/17 09:03:40;;;;;;;7.82;2.35;;;;;;;29.87;37.34;94065.38;4987553;28;20415;-75
2021/07/17 09:06:05;;;;;;;2.63;2.17;;;;;;;29.86;36.89;94052.34;4970200;28;20035;-77
2021/07/17 09:08:31;;;;;;;14.75;2.38;;;;;;;29.93;37.96;94064.09;4970799;28;20034;-74
2021/07/17 09:10:56;;;;;;;9.35;2.25;;;;;;;29.98;37.63;94080.00;4980591;28;20487;-75
2021/07/17 09:13:33;;;;;;;5.20;2.45;;;;;;;30.88;36.25;94066.72;4987169;28;20033;-76
2021/07/17 09:16:12;;;;;;;11.80;2.90;;;;;;;29.91;36.56;94062.84;4979835;28;20107;-74
2021/07/17 09:18:50;;;;;;;15.40;2.57;;;;;;;30.18;36.17;94068.66;4981515;28;20037;-76
2021/07/17 09:21:21;;;;;;;12.73;2.55;;;;;;;30.09;36.24;94064.44;4974929;28;20035;-74
2021/07/17 09:23:50;;;;;;;13.75;2.67;;;;;;;30.26;36.13;94067.09;4968651;28;20093;-74
2021/07/17 09:26:21;;;;;;;18.52;3.25;;;;;;;30.57;36.14;94058.91;4972326;28;20519;-73
2021/07/17 09:29:11;;;;;;;6.05;2.20;;;;;;;30.70;35.84;94066.75;4966635;28;20512;-75
2021/07/17 09:31:49;;;;;;;3.78;2.20;;;;;;;29.99;36.35;94059.41;4984577;28;20598;-73
2021/07/17 09:34:15;;;;;;;7.80;2.85;;;;;;;30.43;35.73;94056.44;5001805;28;20034;-75
2021/07/17 09:36:55;;;;;;;8.50;2.05;;;;;;;30.03;34.79;94050.44;4954086;28;20026;-75
2021/07/17 09:39:22;;;;;;;2.30;2.03;;;;;;;30.07;35.06;94046.06;4979684;28;20111;-75
2021/07/17 09:41:58;;;;;;;6.07;2.13;;;;;;;30.51;35.10;94046.81;4974324;28;20385;-72
2021/07/17 09:44:25;;;;;;;5.32;2.30;;;;;;;30.47;34.63;94033.28;4966521;28;20034;-77
2021/07/17 09:46:50;;;;;;;4.55;2.35;;;;;;;30.61;34.96;94033.91;4969650;28;20030;-79
2021/07/17 09:49:20;;;;;;;6.63;2.13;;;;;;;31.55;35.58;94035.47;4986101;28;20554;-76
2021/07/17 09:51:45;;;;;;;7.07;2.60;;;;;;;30.66;33.56;94028.41;4969389;28;20034;-76
2021/07/17 09:54:11;;;;;;;3.67;1.95;;;;;;;30.69;34.20;94018.94;4966737;28;20065;-77
2021/07/17 09:56:40;;;;;;;7.28;2.78;;;;;;;31.19;34.98;94024.44;4966563;28;20106;-77
2021/07/17 09:59:10;;;;;;;6.90;2.00;;;;;;;30.68;34.16;94012.00;4964799;28;20392;-75
2021/07/17 10:01:42;;;;;;;3.03;2.17;;;;;;;30.52;34.72;94022.44;4966585;28;20093;-77
2021/07/17 10:04:09;;;;;;;7.95;2.50;;;;;;;31.26;35.20;94016.69;4970949;28;20503;-76
2021/07/17 10:06:43;;;;;;;7.28;2.22;;;;;;;30.81;35.77;94019.84;4965657;28;20043;-77
2021/07/17 10:09:14;;;;;;;21.45;2.75;;;;;;;31.28;35.45;94028.63;4983184;28;20039;-77
2021/07/17 10:11:41;;;;;;;5.55;2.80;;;;;;;30.64;35.12;94017.22;4982171;28;20031;-76
2021/07/17 10:14:18;;;;;;;6.05;4.15;;;;;;;30.00;35.16;94002.19;4950801;28;20526;-70
2021/07/17 10:16:44;;;;;;;8.90;2.65;;;;;;;31.16;35.63;94015.16;4982448;28;20031;-76
2021/07/17 10:19:09;;;;;;;7.15;2.85;;;;;;;31.53;34.21;94008.19;4949878;28;20027;-74
2021/07/17 10:21:35;;;;;;;6.97;2.50;;;;;;;31.07;34.37;94013.63;4969138;28;20058;-74
2021/07/17 10:24:03;;;;;;;5.25;2.65;;;;;;;31.07;33.86;94009.06;4969392;28;20035;-80
2021/07/17 10:26:29;;;;;;;4.28;2.53;;;;;;;31.11;33.78;94004.66;4970654;28;20038;-74
2021/07/17 10:28:57;;;;;;;10.77;1.90;;;;;;;30.96;33.64;94009.72;4967290;28;20042;-81
2021/07/17 10:31:23;;;;;;;8.32;1.88;;;;;;;30.90;33.14;94013.66;4980415;28;20416;-75
2021/07/17 10:33:49;;;;;;;3.55;2.20;;;;;;;31.23;33.77;94003.94;4994051;28;20034;-76
2021/07/17 10:36:14;;;;;;;5.32;2.40;;;;;;;31.00;33.38;94000.75;4980490;28;20464;-79
2021/07/17 10:38:43;;;;;;;3.35;1.90;;;;;;;31.18;33.45;94001.44;4958025;28;20037;-76
2021/07/17 10:41:09;;;;;;;3.97;2.00;;;;;;;31.19;33.38;94003.03;4973858;28;20058;-77
2021/07/17 10:43:35;;;;;;;10.02;1.95;;;;;;;31.57;34.98;94006.44;4957627;28;20104;-75
2021/07/17 10:46:01;;;;;;;4.03;2.20;;;;;;;31.60;33.53;93995.09;4957396;28;20026;-75
2021/07/17 10:48:27;;;;;;;4.78;2.25;;;;;;;31.33;33.79;93985.63;4957868;28;20069;-77
2021/07/17 10:50:59;;;;;;;6.80;1.77;;;;;;;31.60;34.29;93999.66;4973066;28;20034;-76
2021/07/17 10:53:44;;;;;;;3.88;2.10;;;;;;;30.62;33.08;93983.88;4973663;28;20092;-71
2021/07/17 10:56:28;;;;;;;2.65;1.95;;;;;;;31.32;33.43;93985.94;4989802;28;20522;-75
2021/07/17 10:58:57;;;;;;;3.55;1.90;;;;;;;31.48;32.77;93988.84;4989196;28;21537;-75
2021/07/17 11:01:22;;;;;;;3.80;2.03;;;;;;;31.60;32.66;93978.22;5005458;28;20046;-75
2021/07/17 11:03:48;;;;;;;4.15;1.67;;;;;;;32.07;32.96;93976.94;4968335;28;20058;-76
2021/07/17 11:06:26;;;;;;;5.10;1.90;;;;;;;31.86;32.73;93973.44;4952849;28;20078;-78
2021/07/17 11:08:56;;;;;;;7.47;2.35;;;;;;;31.47;32.21;93974.66;4983500;28;20026;-75
2021/07/17 11:11:27;;;;;;;3.60;2.45;;;;;;;32.09;31.64;93968.56;4972399;28;20703;-77
2021/07/17 11:13:53;;;;;;;6.78;2.33;;;;;;;31.65;32.89;93968.13;4989293;28;20030;-76
2021/07/17 11:16:41;;;;;;;3.10;1.88;;;;;;;31.82;31.67;93970.66;4955124;28;20056;-76
2021/07/17 11:19:16;;;;;;;5.63;1.90;;;;;;;31.37;31.99;93958.22;4993007;28;20037;-77
2021/07/17 11:21:41;;;;;;;6.70;1.98;;;;;;;31.25;31.73;93957.00;4988084;28;20030;-75
2021/07/17 11:24:07;;;;;;;3.47;1.95;;;;;;;31.90;32.16;93960.19;4970880;28;20031;-78
2021/07/17 11:26:33;;;;;;;3.08;1.75;;;;;;;32.01;32.03;93935.34;4954791;28;20031;-77
2021/07/17 11:29:02;;;;;;;4.88;1.88;;;;;;;32.28;33.15;93950.06;4971905;28;20364;-79
2021/07/17 11:31:28;;;;;;;4.53;1.60;;;;;;;32.06;31.59;93942.41;4971718;28;20049;-77
2021/07/17 11:34:20;;;;;;;3.00;2.30;;;;;;;31.85;31.63;93937.06;4988751;28;20105;-76
2021/07/17 11:36:52;;;;;;;8.68;2.63;;;;;;;32.12;30.58;93936.50;4969619;28;20031;-78
2021/07/17 11:39:19;;;;;;;4.63;2.20;;;;;;;31.79;31.17;93933.78;4970100;28;20115;-76
2021/07/17 11:41:44;;;;;;;5.85;2.20;;;;;;;32.01;30.67;93924.63;4952301;28;20113;-79
2021/07/17 11:44:10;;;;;;;3.40;1.90;;;;;;;31.93;30.44;93928.16;4935976;28;20038;-78
2021/07/17 11:46:35;;;;;;;2.00;1.77;;;;;;;31.80;29.96;93918.50;4952420;28;20034;-76
2021/07/17 11:49:07;;;;;;;3.28;1.75;;;;;;;31.92;29.94;93926.56;4935795;28;20485;-79
2021/07/17 11:51:33;;;;;;;6.80;2.05;;;;;;;32.11;30.06;93923.47;4936229;28;20189;-80
2021/07/17 11:53:59;;;;;;;9.40;2.20;;;;;;;32.08;30.36;93914.16;4951998;28;20046;-78
2021/07/17 11:56:25;;;;;;;3.13;2.10;;;;;;;32.00;30.52;93922.25;4952105;28;20040;-76
2021/07/17 11:58:50;;;;;;;4.13;1.60;;;;;;;31.90;30.70;93911.94;4962382;28;20034;-78
2021/07/17 12:01:19;;;;;;;2.67;1.70;;;;;;;32.12;31.58;93914.28;4967468;28;20039;-79
2021/07/17 12:03:54;;;;;;;3.28;1.80;;;;;;;32.15;29.87;93908.25;4971207;28;20026;-77
2021/07/17 12:06:24;;;;;;;2.13;1.92;;;;;;;32.22;29.87;93908.50;4968019;28;20174;-77
2021/07/17 12:08:49;;;;;;;2.28;1.83;;;;;;;32.19;30.99;93903.81;4953673;28;20027;-79
2021/07/17 12:11:16;;;;;;;2.97;1.80;;;;;;;32.62;29.31;93900.66;4954121;28;20173;-79
2021/07/17 12:13:41;;;;;;;4.97;1.85;;;;;;;32.40;30.01;93899.13;4967956;28;20045;-81
2021/07/17 12:16:19;;;;;;;9.55;2.20;;;;;;;33.07;30.38;93895.97;4960992;28;20030;-80
2021/07/17 12:18:52;;;;;;;3.20;2.47;;;;;;;32.63;30.00;93896.84;4967798;28;20031;-83
2021/07/17 12:21:17;;;;;;;2.35;2.13;;;;;;;32.30;29.64;93895.00;4969762;28;20503;-84
2021/07/17 12:23:43;;;;;;;5.05;2.17;;;;;;;32.42;30.43;93896.13;4960292;28;20042;-79
2021/07/17 12:26:08;;;;;;;5.88;1.80;;;;;;;32.37;30.36;93899.81;4967504;28;20650;-78
2021/07/17 12:28:35;;;;;;;3.38;1.83;;;;;;;32.16;29.31;93886.50;4970769;28;20493;-79
2021/07/17 12:31:07;;;;;;;4.05;2.00;;;;;;;32.69;30.29;93887.47;4965578;28;20026;-80
2021/07/17 12:33:33;;;;;;;1.98;1.83;;;;;;;32.90;29.70;93882.78;4971599;28;20065;-81
2021/07/17 12:36:08;;;;;;;4.85;3.28;;;;;;;32.14;39.68;93886.00;4961693;28;20077;-79
2021/07/17 12:38:46;;;;;;;7.45;4.00;;;;;;;32.48;39.95;93887.53;4967286;28;20054;-81
2021/07/17 12:41:18;;;;;;;4.55;3.15;;;;;;;32.47;39.72;93879.81;4967276;28;20034;-79
2021/07/17 12:43:44;;;;;;;8.90;3.47;;;;;;;32.12;40.09;93880.22;4951126;28;20031;-81
2021/07/17 12:46:24;;;;;;;6.30;3.60;;;;;;;32.10;41.75;93874.41;4971432;28;20068;-80
2021/07/17 12:49:09;;;;;;;10.68;4.28;;;;;;;32.49;41.38;93885.66;4967126;28;20045;-79
2021/07/17 12:51:51;;;;;;;7.43;3.95;;;;;;;31.45;44.32;93885.03;4983876;28;20097;-78
2021/07/17 12:54:17;;;;;;;7.75;4.05;;;;;;;31.55;43.55;93879.31;4966661;28;20477;-76
2021/07/17 12:56:47;;;;;;;4.78;3.58;;;;;;;31.73;43.37;93880.72;4966981;28;20031;-76
2021/07/17 12:59:28;;;;;;;6.43;3.60;;;;;;;32.32;43.04;93873.22;4966848;28;20027;-81
2021/07/17 13:01:56;;;;;;;8.38;4.25;;;;;;;31.06;43.11;93868.31;4982834;28;20133;-77
2021/07/17 13:04:23;;;;;;;7.25;3.25;;;;;;;31.10;43.08;93871.91;4966554;28;20497;-77
2021/07/17 13:06:56;;;;;;;5.53;3.80;;;;;;;31.68;42.95;93868.34;4950550;28;20062;-76
2021/07/17 13:09:27;;;;;;;6.53;3.50;;;;;;;31.46;41.48;93874.03;4967742;28;20097;-78
2021/07/17 13:11:53;;;;;;;5.03;4.00;;;;;;;31.44;42.66;93852.13;4983007;28;20133;-77
2021/07/17 13:14:22;;;;;;;7.63;3.65;;;;;;;31.59;43.57;93851.56;4950408;28;20400;-76
2021/07/17 13:16:47;;;;;;;5.93;3.63;;;;;;;31.50;43.30;93845.47;4966074;28;20388;-74
2021/07/17 13:19:13;;;;;;;9.45;4.03;;;;;;;32.01;42.28;93838.06;4985405;28;20037;-73
2021/07/17 13:21:45;;;;;;;10.18;4.53;;;;;;;31.90;43.79;93845.72;4966268;28;20031;-75
2021/07/17 13:24:17;;;;;;;7.30;3.45;;;;;;;31.01;43.86;93831.06;4969598;28;20488;-75
2021/07/17 13:26:54;;;;;;;4.00;3.50;;;;;;;30.78;44.19;93835.13;4966260;28;20448;-75
2021/07/17 13:29:26;;;;;;;7.75;4.00;;;;;;;31.18;44.41;93844.28;4950760;28;20031;-75
2021/07/17 13:31:59;;;;;;;5.53;4.07;;;;;;;31.21;44.78;93849.00;4966179;28;20484;-74
2021/07/17 13:34:26;;;;;;;6.57;3.90;;;;;;;30.78;44.97;93843.13;4965986;28;20019;-73
2021/07/17 13:37:09;;;;;;;5.97;3.70;;;;;;;30.76;43.85;93826.63;4949509;28;20030;-75
2021/07/17 13:39:52;;;;;;;5.45;3.42;;;;;;;31.45;40.54;93828.81;4967567;28;20122;-74
2021/07/17 13:42:19;;;;;;;4.40;2.95;;;;;;;31.79;41.70;93833.84;4966925;28;20509;-78
2021/07/17 13:44:45;;;;;;;9.07;3.63;;;;;;;31.41;44.53;93831.34;4966015;28;20026;-74
2021/07/17 13:47:12;;;;;;;7.72;3.20;;;;;;;30.90;45.34;93837.88;4949567;28;20030;-75
2021/07/17 13:49:37;;;;;;;8.40;4.03;;;;;;;30.84;44.10;93833.81;4965808;28;20027;-74
2021/07/17 13:52:03;;;;;;;5.10;3.63;;;;;;;30.83;44.83;93822.31;4965485;28;20027;-75
2021/07/17 13:54:28;;;;;;;3.70;3.40;;;;;;;31.03;43.89;93817.34;4949854;28;20034;-74
2021/07/17 13:56:54;;;;;;;4.32;2.88;;;;;;;31.19;36.34;93826.34;4949662;28;20034;-75
2021/07/17 13:59:28;;;;;;;5.38;2.65;;;;;;;31.15;37.57;93830.78;4948632;28;20033;-75
2021/07/17 14:02:08;;;;;;;3.90;2.30;;;;;;;31.04;34.55;93814.34;4980863;28;20053;-75
2021/07/17 14:04:34;;;;;;;6.40;2.47;;;;;;;31.16;33.14;93827.00;4968733;28;20029;-75
2021/07/17 14:06:59;;;;;;;1.95;1.70;;;;;;;31.31;35.16;93829.06;4985018;28;20038;-74
2021/07/17 14:09:25;;;;;;;2.35;1.88;;;;;;;31.26;35.47;93821.25;4943765;28;20092;-75
2021/07/17 14:11:50;;;;;;;5.50;2.10;;;;;;;31.42;34.79;93824.09;4977746;28;20034;-75
2021/07/17 14:14:16;;;;;;;6.07;2.90;;;;;;;30.72;39.73;93834.53;4982815;28;20057;-74
2021/07/17 14:16:41;;;;;;;8.15;3.15;;;;;;;30.27;43.81;93838.81;4983162;28;20577;-75
2021/07/17 14:19:07;;;;;;;6.80;3.65;;;;;;;30.14;44.59;93835.25;4979869;28;20041;-75
2021/07/17 14:21:33;;;;;;;6.57;3.58;;;;;;;30.28;43.05;93818.97;4978007;28;20041;-74
2021/07/17 14:23:59;;;;;;;6.70;3.80;;;;;;;30.37;44.71;93818.94;4963556;28;20038;-75
2021/07/17 14:26:25;;;;;;;8.60;4.30;;;;;;;30.20;43.27;93814.47;4979249;28;20030;-75
2021/07/17 14:28:51;;;;;;;6.30;3.15;;;;;;;30.47;43.71;93808.69;4978998;28;20038;-75
2021/07/17 14:31:16;;;;;;;3.80;3.50;;;;;;;30.58;42.93;93806.44;4979568;28;20026;-74
2021/07/17 14:33:42;;;;;;;3.72;2.97;;;;;;;30.51;42.39;93804.28;4964245;28;20542;-74
2021/07/17 14:36:08;;;;;;;4.82;3.05;;;;;;;30.60;44.29;93799.66;4979532;28;20403;-74
2021/07/17 14:38:33;;;;;;;4.78;2.42;;;;;;;30.56;37.26;93798.75;4979370;28;20042;-76
2021/07/17 14:40:59;;;;;;;2.50;2.30;;;;;;;30.58;37.26;93787.72;4963289;28;20038;-74
2021/07/17 14:43:25;;;;;;;3.33;2.17;;;;;;;30.58;36.87;93803.75;4979286;28;20026;-75
2021/07/17 14:45:50;;;;;;;5.10;2.13;;;;;;;30.44;39.24;93803.22;4978443;28;20031;-74
2021/07/17 14:48:15;;;;;;;4.53;2.80;;;;;;;30.53;39.37;93806.63;4979843;28;20070;-74
2021/07/17 14:50:41;;;;;;;3.33;3.03;;;;;;;30.56;37.29;93798.75;4962945;28;20022;-75
2021/07/17 14:53:07;;;;;;;3.30;2.15;;;;;;;30.54;39.36;93800.94;4979722;28;20047;-74
2021/07/17 14:55:32;;;;;;;2.38;2.10;;;;;;;30.68;37.95;93801.50;4961538;28;20023;-74
2021/07/17 14:57:59;;;;;;;4.50;2.15;;;;;;;30.41;38.64;93799.28;4961872;28;20121;-74
2021/07/17 15:00:24;;;;;;;8.13;3.33;;;;;;;30.28;39.56;93800.25;4963466;28;20025;-74
2021/07/17 15:02:50;;;;;;;9.48;2.90;;;;;;;30.80;38.04;93798.09;4962533;28;20046;-74
2021/07/17 15:05:15;;;;;;;6.80;2.55;;;;;;;31.18;38.88;93793.44;4962137;28;20037;-75
2021/07/17 15:07:41;;;;;;;6.93;2.88;;;;;;;31.19;36.48;93786.97;4962968;28;20096;-74
2021/07/17 15:10:07;;;;;;;4.88;2.65;;;;;;;31.26;36.76;93784.56;4962155;28;20026;-74
2021/07/17 15:12:33;;;;;;;5.30;2.38;;;;;;;31.17;36.87;93777.72;4962606;28;20110;-76
2021/07/17 15:14:58;;;;;;;6.60;3.20;;;;;;;31.14;36.69;93781.06;4965722;28;20042;-75
2021/07/17 15:17:24;;;;;;;5.35;2.22;;;;;;;31.13;36.23;93782.16;4983390;28;20084;-75
2021/07/17 15:19:49;;;;;;;6.15;2.90;;;;;;;31.04;34.80;93771.53;4966595;28;20436;-74
2021/07/17 15:22:15;;;;;;;9.20;2.47;;;;;;;30.97;35.35;93778.50;4981616;28;20841;-74
2021/07/17 15:24:40;;;;;;;5.18;2.58;;;;;;;31.01;36.42;93777.53;4965882;28;20034;-75
2021/07/17 15:27:05;;;;;;;3.28;2.42;;;;;;;31.04;35.76;93774.22;4965986;28;20500;-74
2021/07/17 15:29:32;;;;;;;6.47;2.40;;;;;;;31.16;35.86;93776.16;4966683;28;20105;-76
2021/07/17 15:31:57;;;;;;;11.52;2.47;;;;;;;30.95;35.97;93786.88;4965976;28;20034;-74
2021/07/17 15:34:23;;;;;;;4.28;2.45;;;;;;;31.02;36.17;93775.66;4965899;28;20034;-74
2021/07/17 15:36:49;;;;;;;10.68;2.60;;;;;;;31.01;36.21;93774.06;4981885;28;20108;-74
2021/07/17 15:39:15;;;;;;;4.45;2.88;;;;;;;30.95;36.55;93776.16;4965534;28;20563;-75
2021/07/17 15:41:40;;;;;;;4.40;2.40;;;;;;;30.89;36.71;93776.66;4981781;28;20022;-73
2021/07/17 15:44:07;;;;;;;8.48;2.92;;;;;;;30.92;37.02;93771.41;4965731;28;20038;-74
2021/07/17 15:46:33;;;;;;;8.95;2.38;;;;;;;30.65;36.98;93770.06;4963259;28;20030;-74
2021/07/17 15:48:59;;;;;;;4.63;2.28;;;;;;;30.95;37.92;93770.81;4963380;28;20472;-74
2021/07/17 15:51:24;;;;;;;4.15;2.38;;;;;;;30.66;37.86;93771.63;4960723;28;20033;-75
2021/07/17 15:53:50;;;;;;;8.43;2.58;;;;;;;30.64;37.07;93767.69;4963697;28;20419;-74
2021/07/17 15:56:16;;;;;;;4.60;2.42;;;;;;;30.48;37.67;93778.19;4981468;28;20147;-74
2021/07/17 15:58:41;;;;;;;10.10;2.60;;;;;;;30.34;37.80;93766.91;4980796;28;20033;-70
2021/07/17 16:01:07;;;;;;;9.63;2.30;;;;;;;30.40;38.33;93781.69;4965030;28;20046;-71
2021/07/17 16:03:32;;;;;;;6.32;2.30;;;;;;;30.38;38.26;93786.53;4965915;28;20100;-73
2021/07/17 16:05:58;;;;;;;5.75;2.50;;;;;;;30.08;38.50;93753.69;4981864;28;20023;-73
2021/07/17 16:08:23;;;;;;;9.93;2.50;;;;;;;30.11;38.98;93784.31;4982067;28;20499;-73
2021/07/17 16:10:49;;;;;;;6.63;2.28;;;;;;;30.22;39.04;93780.16;4964636;28;20512;-75
2021/07/17 16:13:14;;;;;;;4.57;2.17;;;;;;;30.14;39.25;93781.81;4965308;28;20450;-74
2021/07/17 16:15:40;;;;;;;5.47;2.90;;;;;;;30.11;39.37;93787.78;4965953;28;20030;-73
2021/07/17 16:18:05;;;;;;;3.05;2.00;;;;;;;30.09;39.09;93787.31;4983960;28;20081;-75
2021/07/17 16:20:31;;;;;;;11.63;5.40;;;;;;;30.06;39.18;93784.50;4981635;28;20026;-74
2021/07/17 16:22:56;;;;;;;4.47;2.72;;;;;;;30.10;40.48;93791.56;4981341;28;20022;-73
2021/07/17 16:25:22;;;;;;;7.03;2.35;;;;;;;29.91;39.99;93795.72;4983270;28;20054;-73
2021/07/17 16:27:48;;;;;;;5.63;2.90;;;;;;;29.93;40.26;93798.84;4981509;28;20575;-74
2021/07/17 16:30:14;;;;;;;3.70;2.30;;;;;;;29.79;39.91;93804.38;4965587;28;20704;-73
2021/07/17 16:32:43;;;;;;;6.10;2.50;;;;;;;29.62;40.75;93788.38;4981390;28;20044;-74
2021/07/17 16:35:09;;;;;;;4.75;2.40;;;;;;;29.36;40.84;93790.31;4981416;28;20034;-71